Quincy, Illinois
Current Conditions -  °F | °C
As of 9:54 PM on Sunday 23 Nov 2014 (Local Time) from KUIN Reporting Station
Light Rain Light Rain  
Wind Chill: 11°   Ceiling: 300
Heat Index: 11°   Visibility: 1mi
Dew Point: 10°   Wind: 7mph
Humidity: 96%   Direction: 240°WSW
Pressure: 29.22"   Gusts: NA
Location:  39.94°N, 91.39°W
Report Text: KUIN 240354Z AUTO 24006KT 1SM -RA BR VV003 11/10 A2922 RMK AO2 SLP892 P0007 T01060100
Loading
Personal Weather Stations






























Interactive Weather Map New forecast layout! Learn more

10-Day Weather Forecast

Advertisements
Track Severe Weather on mobile